createdAt,value
2022-11-18T00:01:07.421Z,7.33
2022-11-18T00:03:34.281Z,7.23
2022-11-18T00:06:01.107Z,7.00
2022-11-18T00:08:28.046Z,7.57
2022-11-18T00:10:54.984Z,7.40
2022-11-18T00:13:42.002Z,7.97
2022-11-18T00:16:10.162Z,12.70
2022-11-18T00:18:37.365Z,9.50
2022-11-18T00:21:08.407Z,7.30
2022-11-18T00:23:35.643Z,9.00
2022-11-18T00:26:03.472Z,8.53
2022-11-18T00:28:30.844Z,8.33
2022-11-18T00:31:01.194Z,8.30
2022-11-18T00:33:28.122Z,8.83
2022-11-18T00:35:55.472Z,8.17
2022-11-18T00:38:22.272Z,7.47
2022-11-18T00:40:49.266Z,8.53
2022-11-18T00:43:16.195Z,7.87
2022-11-18T00:45:43.783Z,8.00
2022-11-18T00:48:10.600Z,8.27
2022-11-18T00:50:37.418Z,7.23
2022-11-18T00:53:04.276Z,7.80
2022-11-18T00:55:31.984Z,7.83
2022-11-18T00:57:58.916Z,8.17
2022-11-18T01:00:25.709Z,7.07
2022-11-18T01:02:52.803Z,7.93
2022-11-18T01:05:19.727Z,7.70
2022-11-18T01:07:46.601Z,7.60
2022-11-18T01:10:13.505Z,7.17
2022-11-18T01:12:58.640Z,8.00
2022-11-18T01:15:25.528Z,9.17
2022-11-18T01:17:52.293Z,11.80
2022-11-18T01:20:19.142Z,14.20
2022-11-18T01:22:45.970Z,8.80
2022-11-18T01:25:13.495Z,8.50
2022-11-18T01:27:41.011Z,8.37
2022-11-18T01:30:08.084Z,9.33
2022-11-18T01:32:35.064Z,8.00
2022-11-18T01:35:01.830Z,8.90
2022-11-18T01:37:28.687Z,8.30
2022-11-18T01:39:55.470Z,7.63
2022-11-18T01:42:22.442Z,7.30
2022-11-18T01:45:10.217Z,8.70
2022-11-18T01:47:39.314Z,9.43
2022-11-18T01:50:06.902Z,12.57
2022-11-18T01:52:34.433Z,8.67
2022-11-18T01:55:04.470Z,8.33
2022-11-18T01:57:32.588Z,8.50
2022-11-18T02:00:01.623Z,8.57
2022-11-18T02:02:32.983Z,8.50
2022-11-18T02:05:01.011Z,8.83
2022-11-18T02:07:28.031Z,9.40
2022-11-18T02:09:55.545Z,9.03
2022-11-18T02:12:23.486Z,9.80
2022-11-18T02:14:51.102Z,9.47
2022-11-18T02:17:17.930Z,11.50
2022-11-18T02:19:47.748Z,8.73
2022-11-18T02:22:23.597Z,8.67
2022-11-18T02:25:10.636Z,8.93
2022-11-18T02:27:48.778Z,9.80
2022-11-18T02:30:17.095Z,9.23
2022-11-18T02:33:07.176Z,9.17
2022-11-18T02:35:40.047Z,8.87
2022-11-18T02:38:12.447Z,8.60
2022-11-18T02:40:42.043Z,8.70
2022-11-18T02:43:20.400Z,8.83
2022-11-18T02:45:49.831Z,9.30
2022-11-18T02:48:17.580Z,10.07
2022-11-18T02:50:45.682Z,10.80
2022-11-18T02:53:14.074Z,10.10
2022-11-18T02:55:41.757Z,10.00
2022-11-18T02:58:09.047Z,8.97
2022-11-18T03:00:36.321Z,9.20
2022-11-18T03:03:23.129Z,9.40
2022-11-18T03:05:53.393Z,9.27
2022-11-18T03:08:23.677Z,8.93
2022-11-18T03:10:54.534Z,9.13
2022-11-18T03:13:26.817Z,9.73
2022-11-18T03:16:05.376Z,9.20
2022-11-18T03:18:55.352Z,9.57
2022-11-18T03:21:32.145Z,9.57
2022-11-18T03:24:01.864Z,9.20
2022-11-18T03:26:37.736Z,9.07
2022-11-18T03:29:04.596Z,9.57
2022-11-18T03:31:36.653Z,8.87
2022-11-18T03:34:10.029Z,9.97
2022-11-18T03:36:40.839Z,9.70
2022-11-18T03:39:09.115Z,10.83
2022-11-18T03:41:38.947Z,11.53
2022-11-18T03:44:08.411Z,10.73
2022-11-18T03:46:38.542Z,13.27
2022-11-18T03:49:07.692Z,15.23
2022-11-18T03:51:41.958Z,14.57
2022-11-18T03:54:31.894Z,10.13
2022-11-18T03:57:01.288Z,9.07
2022-11-18T03:59:32.224Z,9.60
2022-11-18T04:02:15.372Z,10.30
2022-11-18T04:04:44.002Z,10.77
2022-11-18T04:07:26.845Z,10.47
2022-11-18T04:09:58.105Z,9.83
2022-11-18T04:12:27.227Z,10.17
2022-11-18T04:14:55.637Z,10.30
2022-11-18T04:17:23.800Z,9.47
2022-11-18T04:19:50.791Z,9.60
2022-11-18T04:22:19.383Z,10.30
2022-11-18T04:24:46.190Z,9.60
2022-11-18T04:27:13.257Z,10.77
2022-11-18T04:29:40.147Z,8.50
2022-11-18T04:32:07.060Z,8.40
2022-11-18T04:34:33.860Z,8.50
2022-11-18T04:37:00.797Z,8.87
2022-11-18T04:39:28.033Z,8.00
2022-11-18T04:41:57.586Z,8.47
2022-11-18T04:44:25.972Z,8.17
2022-11-18T04:46:53.148Z,8.43
2022-11-18T04:49:20.180Z,7.97
2022-11-18T04:51:47.455Z,8.67
2022-11-18T04:54:14.752Z,8.87
2022-11-18T04:56:48.456Z,8.77
2022-11-18T04:59:18.094Z,8.70
2022-11-18T05:01:45.395Z,9.43
2022-11-18T05:04:13.405Z,9.63
2022-11-18T05:06:40.216Z,9.57
2022-11-18T05:09:07.175Z,10.93
2022-11-18T05:11:53.102Z,9.13
2022-11-18T05:14:20.011Z,9.87
2022-11-18T05:16:46.827Z,10.47
2022-11-18T05:19:13.725Z,10.50
2022-11-18T05:21:40.660Z,10.33
2022-11-18T05:24:07.610Z,9.90
2022-11-18T05:26:34.604Z,10.80
2022-11-18T05:29:01.389Z,9.27
2022-11-18T05:31:28.324Z,8.50
2022-11-18T05:33:55.534Z,8.20
2022-11-18T05:36:22.499Z,9.13
2022-11-18T05:38:49.680Z,9.57
2022-11-18T05:41:35.546Z,10.07
2022-11-18T05:44:03.292Z,9.93
2022-11-18T05:46:30.923Z,9.67
2022-11-18T05:48:57.692Z,10.13
2022-11-18T05:51:24.834Z,11.50
2022-11-18T05:53:52.430Z,14.23
2022-11-18T05:56:21.309Z,10.10
2022-11-18T05:58:48.477Z,9.70
2022-11-18T06:01:17.747Z,10.20
2022-11-18T06:03:44.790Z,10.43
2022-11-18T06:06:13.887Z,12.60
2022-11-18T06:08:43.205Z,9.27
2022-11-18T06:11:12.624Z,9.27
2022-11-18T06:13:42.276Z,8.30
2022-11-18T06:16:09.144Z,9.70
2022-11-18T06:18:36.245Z,8.53
2022-11-18T06:21:04.566Z,9.77
2022-11-18T06:23:34.177Z,9.37
2022-11-18T06:26:01.402Z,7.70
2022-11-18T06:28:29.908Z,8.30
2022-11-18T06:30:56.797Z,8.87
2022-11-18T06:33:23.563Z,8.57
2022-11-18T06:35:50.407Z,8.47
2022-11-18T06:38:17.189Z,8.37
2022-11-18T06:40:44.968Z,8.57
2022-11-18T06:43:31.182Z,9.90
2022-11-18T06:46:20.359Z,9.50
2022-11-18T06:48:47.579Z,13.37
2022-11-18T06:51:14.609Z,12.73
2022-11-18T06:53:41.445Z,10.20
2022-11-18T06:56:09.568Z,10.33
2022-11-18T06:58:36.724Z,10.40
2022-11-18T07:01:30.038Z,9.50
2022-11-18T07:03:58.237Z,13.63
2022-11-18T07:06:26.306Z,10.07
2022-11-18T07:08:53.226Z,10.40
2022-11-18T07:11:21.280Z,9.30
2022-11-18T07:13:48.461Z,9.33
2022-11-18T07:16:16.464Z,10.57
2022-11-18T07:18:44.092Z,11.70
2022-11-18T07:21:12.474Z,11.00
2022-11-18T07:23:39.658Z,12.10
2022-11-18T07:26:06.915Z,12.60
2022-11-18T07:28:34.058Z,11.20
2022-11-18T07:31:08.465Z,12.07
2022-11-18T07:33:36.089Z,13.17
2022-11-18T07:36:07.550Z,12.93
2022-11-18T07:38:34.425Z,10.67
2022-11-18T07:41:05.178Z,10.80
2022-11-18T07:43:32.780Z,10.53
2022-11-18T07:45:59.980Z,10.93
2022-11-18T07:48:26.810Z,10.23
2022-11-18T07:50:54.162Z,10.87
2022-11-18T07:53:21.577Z,10.77
2022-11-18T07:55:48.463Z,10.97
2022-11-18T07:58:15.260Z,10.43
2022-11-18T08:00:42.243Z,11.50
2022-11-18T08:03:12.457Z,12.47
2022-11-18T08:05:41.446Z,12.83
2022-11-18T08:08:08.756Z,15.20
2022-11-18T08:10:35.721Z,10.73
2022-11-18T08:13:02.540Z,12.90
2022-11-18T08:15:29.466Z,11.90
2022-11-18T08:17:56.243Z,11.57
2022-11-18T08:20:27.379Z,12.00
2022-11-18T08:22:54.229Z,11.77
2022-11-18T08:25:21.025Z,10.77
2022-11-18T08:27:47.961Z,11.30
2022-11-18T08:30:14.771Z,11.90
2022-11-18T08:32:41.692Z,11.80
2022-11-18T08:35:11.255Z,12.07
2022-11-18T08:37:38.420Z,12.50
2022-11-18T08:40:05.570Z,12.57
2022-11-18T08:42:34.442Z,12.00
2022-11-18T08:45:01.679Z,12.37
2022-11-18T08:47:28.472Z,11.87
2022-11-18T08:49:55.298Z,11.27
2022-11-18T08:52:22.458Z,12.03
2022-11-18T08:54:49.330Z,11.73
2022-11-18T08:57:16.103Z,12.70
2022-11-18T08:59:43.045Z,11.63
2022-11-18T09:02:16.620Z,11.77
2022-11-18T09:04:43.544Z,11.17
2022-11-18T09:07:10.486Z,12.03
2022-11-18T09:09:37.474Z,11.57
2022-11-18T09:12:04.376Z,10.87
2022-11-18T09:17:18.650Z,11.90
2022-11-18T09:19:47.627Z,11.43
2022-11-18T09:22:15.247Z,11.73
2022-11-18T09:24:43.639Z,12.03
2022-11-18T09:27:16.367Z,11.83
2022-11-18T09:29:44.336Z,11.60
2022-11-18T09:32:11.127Z,11.90
2022-11-18T09:34:37.947Z,11.27
2022-11-18T09:37:06.735Z,12.00
2022-11-18T09:39:37.410Z,11.53
2022-11-18T09:42:22.992Z,13.03
2022-11-18T09:45:04.488Z,11.60
2022-11-18T09:47:34.313Z,11.93
2022-11-18T09:50:26.632Z,12.47
2022-11-18T09:53:04.581Z,11.60
2022-11-18T09:55:32.007Z,11.70
2022-11-18T09:57:59.609Z,11.53
2022-11-18T10:00:27.567Z,12.00
2022-11-18T10:03:06.520Z,12.03
2022-11-18T10:05:45.536Z,11.87
2022-11-18T10:08:27.468Z,13.20
2022-11-18T10:10:54.585Z,11.17
2022-11-18T10:13:32.718Z,11.43
2022-11-18T10:16:23.297Z,10.03
2022-11-18T10:19:01.767Z,11.73
2022-11-18T10:21:47.632Z,11.80
2022-11-18T10:24:14.666Z,11.90
2022-11-18T10:26:42.074Z,11.53
2022-11-18T10:29:11.076Z,10.67
2022-11-18T10:31:52.242Z,10.63
2022-11-18T10:34:20.153Z,11.27
2022-11-18T10:37:05.683Z,12.03
2022-11-18T10:39:32.885Z,11.80
2022-11-18T10:42:04.484Z,12.73
2022-11-18T10:44:31.480Z,11.20
2022-11-18T10:47:17.082Z,11.53
2022-11-18T10:49:44.389Z,12.93
2022-11-18T10:52:14.893Z,12.17
2022-11-18T10:54:42.503Z,23.50
2022-11-18T10:57:15.583Z,16.30
2022-11-18T11:00:02.961Z,14.00
2022-11-18T11:02:31.700Z,19.97
2022-11-18T11:04:59.579Z,15.37
2022-11-18T11:07:28.044Z,12.33
2022-11-18T11:10:02.541Z,12.10
2022-11-18T11:12:31.587Z,12.33
2022-11-18T11:15:00.808Z,12.40
2022-11-18T11:17:30.006Z,12.43
2022-11-18T11:19:57.095Z,12.60
2022-11-18T11:22:24.125Z,12.70
2022-11-18T11:24:51.010Z,11.57
2022-11-18T11:30:16.734Z,11.87
2022-11-18T11:33:14.091Z,12.73
2022-11-18T11:35:59.622Z,13.30
2022-11-18T11:38:26.522Z,13.23
2022-11-18T11:41:06.189Z,17.50
2022-11-18T11:43:39.765Z,13.20
2022-11-18T11:46:12.473Z,13.77
2022-11-18T11:48:48.485Z,15.77
2022-11-18T11:51:33.743Z,13.30
2022-11-18T11:54:15.968Z,14.93
2022-11-18T11:56:55.522Z,15.10
2022-11-18T11:59:31.013Z,16.80
2022-11-18T12:01:59.824Z,19.37
2022-11-18T12:04:39.021Z,15.43
2022-11-18T12:07:07.252Z,14.80
2022-11-18T12:09:34.150Z,16.10
2022-11-18T12:12:26.764Z,17.33
2022-11-18T12:14:56.867Z,16.93
2022-11-18T12:17:28.140Z,17.43
2022-11-18T12:19:54.986Z,19.73
2022-11-18T12:22:22.043Z,16.23
2022-11-18T12:24:48.910Z,15.53
2022-11-18T12:27:35.669Z,16.20
2022-11-18T12:30:04.047Z,18.23
2022-11-18T12:32:43.806Z,19.37
2022-11-18T12:35:10.708Z,18.37
2022-11-18T12:37:57.747Z,20.60
2022-11-18T12:40:32.530Z,16.67
2022-11-18T12:43:19.084Z,18.00
2022-11-18T12:45:46.159Z,19.80
2022-11-18T12:48:28.463Z,20.40
2022-11-18T12:51:15.511Z,19.47
2022-11-18T12:53:43.780Z,19.23
2022-11-18T12:56:30.825Z,16.43
2022-11-18T12:58:59.034Z,18.57
2022-11-18T13:01:27.177Z,16.50
2022-11-18T13:04:06.270Z,16.70
2022-11-18T13:06:34.286Z,17.23
2022-11-18T13:09:03.358Z,17.47
2022-11-18T13:11:49.922Z,16.77
2022-11-18T13:14:35.816Z,16.60
2022-11-18T13:17:21.270Z,16.07
2022-11-18T13:19:56.213Z,17.70
2022-11-18T13:22:42.209Z,17.10
2022-11-18T13:25:22.597Z,17.27
2022-11-18T13:27:52.576Z,17.27
2022-11-18T13:30:19.427Z,16.40
2022-11-18T13:32:47.217Z,17.20
2022-11-18T13:35:18.790Z,16.60
2022-11-18T13:37:53.810Z,15.20
2022-11-18T13:40:22.017Z,17.40
2022-11-18T13:42:48.881Z,16.03
2022-11-18T13:45:15.935Z,18.27
2022-11-18T13:47:42.827Z,17.43
2022-11-18T13:50:36.388Z,16.87
2022-11-18T13:53:19.168Z,17.77
2022-11-18T13:55:48.445Z,17.43
2022-11-18T13:58:18.317Z,17.47
2022-11-18T14:00:55.183Z,16.50
2022-11-18T14:03:27.724Z,18.10
2022-11-18T14:05:55.133Z,16.23
2022-11-18T14:08:39.097Z,14.83
2022-11-18T14:11:07.105Z,22.70
2022-11-18T14:13:35.681Z,16.40
2022-11-18T14:16:22.851Z,17.23
2022-11-18T14:18:51.863Z,18.77
2022-11-18T14:21:31.899Z,16.77
2022-11-18T14:23:59.299Z,15.80
2022-11-18T14:26:30.921Z,15.70
2022-11-18T14:28:58.850Z,15.83
2022-11-18T14:31:30.151Z,14.97
2022-11-18T14:34:16.385Z,13.93
2022-11-18T14:36:43.699Z,14.57
2022-11-18T14:39:26.404Z,13.57
2022-11-18T14:41:54.362Z,15.57
2022-11-18T14:44:22.229Z,13.87
2022-11-18T14:46:53.750Z,16.13
2022-11-18T14:49:23.010Z,15.23
2022-11-18T14:51:51.301Z,14.23
2022-11-18T14:54:25.493Z,14.87
2022-11-18T14:56:54.619Z,15.27
2022-11-18T14:59:21.561Z,15.47
2022-11-18T15:01:48.629Z,14.23
2022-11-18T15:04:17.514Z,13.67
2022-11-18T15:06:44.649Z,13.10
2022-11-18T15:09:12.129Z,15.13
2022-11-18T15:11:38.980Z,13.20
2022-11-18T15:14:05.836Z,13.17
2022-11-18T15:16:33.125Z,12.47
2022-11-18T15:19:01.260Z,12.17
2022-11-18T15:21:28.245Z,11.73
2022-11-18T15:23:55.103Z,12.07
2022-11-18T15:26:29.479Z,12.83
2022-11-18T15:28:57.320Z,13.37
2022-11-18T15:31:24.741Z,11.97
2022-11-18T15:33:51.828Z,9.43
2022-11-18T15:36:19.665Z,10.40
2022-11-18T15:38:46.670Z,10.13
2022-11-18T15:41:16.617Z,9.83
2022-11-18T15:43:43.927Z,9.17
2022-11-18T15:46:10.779Z,9.00
2022-11-18T15:48:37.749Z,9.07
2022-11-18T15:51:10.464Z,10.87
2022-11-18T15:53:39.272Z,10.43
2022-11-18T15:56:24.352Z,9.37
2022-11-18T15:58:58.628Z,9.10
2022-11-18T16:01:26.479Z,9.27
2022-11-18T16:03:53.709Z,8.10
2022-11-18T16:06:20.599Z,9.40
2022-11-18T16:08:47.480Z,8.83
2022-11-18T16:11:33.822Z,8.57
2022-11-18T16:14:02.194Z,9.90
2022-11-18T16:16:30.314Z,9.27
2022-11-18T16:18:58.457Z,7.50
2022-11-18T16:21:25.835Z,7.43
2022-11-18T16:23:56.504Z,7.83
2022-11-18T16:26:23.343Z,7.37
2022-11-18T16:28:50.344Z,7.33
2022-11-18T16:31:35.581Z,8.67
2022-11-18T16:34:09.314Z,7.57
2022-11-18T16:36:36.928Z,7.17
2022-11-18T16:39:06.189Z,5.83
2022-11-18T16:41:33.306Z,7.27
2022-11-18T16:44:00.659Z,8.00
2022-11-18T16:46:28.275Z,9.07
2022-11-18T16:48:55.943Z,9.47
2022-11-18T16:51:27.264Z,10.50
2022-11-18T16:53:55.031Z,9.70
2022-11-18T16:56:22.632Z,8.90
2022-11-18T16:58:49.492Z,10.23
2022-11-18T17:01:20.889Z,7.73
2022-11-18T17:03:52.127Z,7.80
2022-11-18T17:06:19.429Z,8.67
2022-11-18T17:08:46.313Z,8.10
2022-11-18T17:11:13.198Z,7.97
2022-11-18T17:13:41.221Z,8.13
2022-11-18T17:16:08.994Z,9.67
2022-11-18T17:18:36.303Z,8.47
2022-11-18T17:21:22.146Z,5.80
2022-11-18T17:23:49.392Z,6.37
2022-11-18T17:26:18.295Z,6.50
2022-11-18T17:28:45.299Z,10.23
2022-11-18T17:31:13.389Z,9.17
2022-11-18T17:33:40.599Z,8.03
2022-11-18T17:36:08.362Z,11.37
2022-11-18T17:38:36.408Z,8.67
2022-11-18T17:41:03.433Z,9.13
2022-11-18T17:43:30.271Z,9.50
2022-11-18T17:45:58.069Z,15.53
2022-11-18T17:48:25.657Z,9.40
2022-11-18T17:50:52.713Z,10.70
2022-11-18T17:53:19.700Z,8.87
2022-11-18T17:55:47.171Z,10.27
2022-11-18T17:58:14.044Z,8.73
2022-11-18T18:00:40.904Z,8.77
2022-11-18T18:03:07.788Z,9.17
2022-11-18T18:05:34.587Z,7.37
2022-11-18T18:08:01.604Z,7.57
2022-11-18T18:10:28.373Z,7.97
2022-11-18T18:13:14.024Z,8.03
2022-11-18T18:15:40.817Z,9.00
2022-11-18T18:18:07.690Z,8.53
2022-11-18T18:20:34.773Z,10.03
2022-11-18T18:23:01.685Z,8.80
2022-11-18T18:25:28.560Z,9.03
2022-11-18T18:27:55.413Z,9.60
2022-11-18T18:30:22.172Z,9.77
2022-11-18T18:32:52.425Z,9.27
2022-11-18T18:35:19.685Z,9.87
2022-11-18T18:37:46.484Z,10.90
2022-11-18T18:40:14.012Z,13.07
2022-11-18T18:42:44.552Z,13.47
2022-11-18T18:45:30.051Z,11.13
2022-11-18T18:47:56.832Z,10.63
2022-11-18T18:50:29.319Z,9.50
2022-11-18T18:52:56.619Z,11.13
2022-11-18T18:55:23.545Z,9.33
2022-11-18T18:57:50.306Z,10.67
2022-11-18T19:00:17.581Z,11.17
2022-11-18T19:02:44.409Z,12.90
2022-11-18T19:05:11.192Z,12.30
2022-11-18T19:07:38.337Z,12.77
2022-11-18T19:10:07.334Z,13.33
2022-11-18T19:12:43.221Z,13.90
2022-11-18T19:15:14.061Z,16.03
2022-11-18T19:17:41.097Z,14.90
2022-11-18T19:20:26.887Z,15.37
2022-11-18T19:22:53.773Z,13.63
2022-11-18T19:25:21.055Z,13.33
2022-11-18T19:27:48.206Z,12.13
2022-11-18T19:30:15.025Z,12.50
2022-11-18T19:32:41.969Z,12.57
2022-11-18T19:35:09.563Z,11.40
2022-11-18T19:37:36.591Z,12.73
2022-11-18T19:40:08.879Z,12.67
2022-11-18T19:42:37.933Z,12.53
2022-11-18T19:45:05.119Z,13.53
2022-11-18T19:47:32.433Z,14.27
2022-11-18T19:49:59.423Z,12.70
2022-11-18T19:52:26.317Z,13.13
2022-11-18T19:54:53.179Z,12.73
2022-11-18T19:57:20.143Z,12.80
2022-11-18T19:59:46.968Z,14.37
2022-11-18T20:02:13.800Z,12.37
2022-11-18T20:04:41.042Z,12.87
2022-11-18T20:07:07.997Z,13.30
2022-11-18T20:09:34.768Z,13.87
2022-11-18T20:12:01.689Z,13.53
2022-11-18T20:14:28.629Z,12.93
2022-11-18T20:16:55.431Z,13.47
2022-11-18T20:19:22.765Z,12.90
2022-11-18T20:21:49.819Z,13.07
2022-11-18T20:24:17.613Z,11.47
2022-11-18T20:26:45.246Z,11.27
2022-11-18T20:29:12.330Z,13.17
2022-11-18T20:31:39.217Z,12.23
2022-11-18T20:34:06.465Z,13.40
2022-11-18T20:36:35.754Z,11.50
2022-11-18T20:39:07.220Z,12.63
2022-11-18T20:41:34.177Z,12.73
2022-11-18T20:44:01.110Z,12.47
2022-11-18T20:46:28.152Z,13.23
2022-11-18T20:48:55.004Z,16.83
2022-11-18T20:51:26.051Z,26.67
2022-11-18T20:53:53.891Z,25.57
2022-11-18T20:56:24.409Z,18.70
2022-11-18T20:58:51.366Z,14.77
2022-11-18T21:01:19.764Z,12.77
2022-11-18T21:03:52.808Z,14.50
2022-11-18T21:06:20.386Z,14.47
2022-11-18T21:08:47.229Z,14.23
2022-11-18T21:11:14.406Z,15.13
2022-11-18T21:14:00.230Z,15.37
2022-11-18T21:16:27.657Z,13.93
2022-11-18T21:18:54.521Z,14.30
2022-11-18T21:21:40.270Z,17.53
2022-11-18T21:24:07.501Z,16.27
2022-11-18T21:26:35.219Z,17.13
2022-11-18T21:29:03.767Z,16.87
2022-11-18T21:31:32.165Z,15.03
2022-11-18T21:33:59.445Z,15.43
2022-11-18T21:36:27.156Z,15.77
2022-11-18T21:38:55.080Z,14.73
2022-11-18T21:41:22.276Z,14.50
2022-11-18T21:44:06.334Z,14.97
2022-11-18T21:46:37.443Z,15.47
2022-11-18T21:49:05.115Z,14.47
2022-11-18T21:51:32.401Z,13.93
2022-11-18T21:53:59.843Z,13.60
2022-11-18T21:56:30.971Z,15.57
2022-11-18T21:58:59.170Z,13.87
2022-11-18T22:01:27.047Z,12.93
2022-11-18T22:03:55.876Z,13.30
2022-11-18T22:06:24.649Z,12.60
2022-11-18T22:08:52.140Z,13.83
2022-11-18T22:11:20.600Z,12.60
2022-11-18T22:13:47.393Z,12.20
2022-11-18T22:16:15.691Z,11.90
2022-11-18T22:18:43.832Z,12.53
2022-11-18T22:21:12.296Z,13.30
2022-11-18T22:23:39.313Z,11.80
2022-11-18T22:26:09.051Z,11.13
2022-11-18T22:28:36.313Z,13.20
2022-11-18T22:31:06.949Z,11.93
2022-11-18T22:33:34.033Z,11.33
2022-11-18T22:36:04.863Z,12.00
2022-11-18T22:38:31.936Z,11.10
2022-11-18T22:40:59.836Z,10.47
2022-11-18T22:43:26.639Z,11.83
2022-11-18T22:46:00.237Z,10.47
2022-11-18T22:48:27.066Z,11.23
2022-11-18T22:50:58.160Z,12.53
2022-11-18T22:53:25.007Z,11.97
2022-11-18T22:55:51.780Z,13.47
2022-11-18T22:58:18.737Z,12.00
2022-11-18T23:00:46.270Z,11.70
2022-11-18T23:03:13.172Z,10.90
2022-11-18T23:05:40.005Z,12.03
2022-11-18T23:08:06.866Z,10.57
2022-11-18T23:10:33.668Z,11.17
2022-11-18T23:13:18.910Z,10.40
2022-11-18T23:15:45.764Z,9.73
2022-11-18T23:18:12.560Z,10.27
2022-11-18T23:20:39.431Z,9.20
2022-11-18T23:23:06.180Z,9.97
2022-11-18T23:25:33.076Z,9.77
2022-11-18T23:27:59.850Z,9.70
2022-11-18T23:30:26.755Z,9.70
2022-11-18T23:32:55.064Z,9.40
2022-11-18T23:35:21.971Z,10.40
2022-11-18T23:37:49.159Z,9.53
2022-11-18T23:40:16.140Z,9.60
2022-11-18T23:42:42.892Z,8.87
2022-11-18T23:45:09.927Z,9.70
2022-11-18T23:47:37.100Z,9.53
2022-11-18T23:50:04.181Z,8.27
2022-11-18T23:52:30.951Z,9.07
2022-11-18T23:54:59.642Z,9.03
2022-11-18T23:57:26.468Z,9.33
2022-11-18T23:59:53.237Z,8.97
